Time;durP1;ratioP1;P1;durP2;ratioP2;P2;SDS_P1;SDS_P2;PMS_P1;PMS_P2;Temp;Humidity;BMP_temperature;BMP_pressure;BME280_temperature;BME280_humidity;BME280_pressure;Samples;Min_cycle;Max_cycle;Signal;HPM_P1;HPM_P2
2022/03/04 00:00:13;;;;;;;15.13;8.57;;;2.30;99.90;;;;;;5051317;28;20579;-74
2022/03/04 00:02:39;;;;;;;17.07;9.80;;;2.20;99.90;;;;;;5044652;28;20218;-74
2022/03/04 00:05:05;;;;;;;14.53;8.43;;;2.10;99.90;;;;;;5052129;28;20179;-74
2022/03/04 00:07:30;;;;;;;12.73;8.60;;;2.20;99.90;;;;;;5052162;28;20221;-76
2022/03/04 00:09:56;;;;;;;14.03;8.53;;;2.20;99.90;;;;;;5051348;28;20213;-77
2022/03/04 00:12:21;;;;;;;17.17;8.77;;;2.20;99.90;;;;;;5050168;28;20231;-75
2022/03/04 00:14:47;;;;;;;15.53;8.40;;;2.20;99.90;;;;;;5052037;28;20209;-75
2022/03/04 00:17:13;;;;;;;11.97;8.07;;;2.20;99.90;;;;;;5049257;28;20748;-78
2022/03/04 00:19:38;;;;;;;12.63;8.20;;;2.20;99.90;;;;;;5051804;28;20179;-75
2022/03/04 00:22:05;;;;;;;13.50;7.53;;;2.10;99.90;;;;;;5048296;28;20210;-77
2022/03/04 00:24:31;;;;;;;11.43;7.27;;;2.10;99.90;;;;;;5052351;28;20288;-76
2022/03/04 00:26:57;;;;;;;20.57;10.80;;;2.10;99.90;;;;;;5046752;28;20796;-76
2022/03/04 00:29:22;;;;;;;18.37;9.47;;;2.10;99.90;;;;;;5051240;28;20179;-77
2022/03/04 00:31:48;;;;;;;15.87;9.67;;;2.10;99.90;;;;;;5045834;28;20168;-77
2022/03/04 00:34:14;;;;;;;16.03;8.03;;;2.20;99.90;;;;;;5050727;28;20264;-75
2022/03/04 00:36:40;;;;;;;14.10;7.80;;;2.10;99.90;;;;;;5051488;28;20213;-75
2022/03/04 00:39:11;;;;;;;14.00;7.90;;;2.20;99.90;;;;;;5047106;28;20279;-78
2022/03/04 00:41:37;;;;;;;13.73;7.47;;;2.20;99.90;;;;;;5055073;28;20401;-79
2022/03/04 00:44:03;;;;;;;13.53;7.90;;;2.30;99.90;;;;;;5052821;28;20743;-77
2022/03/04 00:46:29;;;;;;;13.70;7.57;;;2.30;99.90;;;;;;5052014;28;20227;-75
2022/03/04 00:48:54;;;;;;;13.77;7.47;;;2.30;99.90;;;;;;5050599;28;20222;-78
2022/03/04 00:51:20;;;;;;;17.10;8.17;;;2.30;99.90;;;;;;5052343;28;20218;-78
2022/03/04 00:53:45;;;;;;;14.47;7.40;;;2.40;99.90;;;;;;5051641;28;20218;-79
2022/03/04 00:56:12;;;;;;;15.83;7.67;;;2.30;99.90;;;;;;5049916;28;20221;-77
2022/03/04 00:58:39;;;;;;;13.90;8.70;;;2.30;99.90;;;;;;5041852;28;20233;-76
2022/03/04 01:01:05;;;;;;;14.57;8.40;;;2.30;99.90;;;;;;5050565;28;20206;-75
2022/03/04 01:03:31;;;;;;;15.00;8.90;;;2.30;99.90;;;;;;5050709;28;20210;-76
2022/03/04 01:05:58;;;;;;;12.77;7.57;;;2.30;99.90;;;;;;5050908;28;20709;-76
2022/03/04 01:08:23;;;;;;;11.80;7.40;;;2.30;99.90;;;;;;5049594;28;20700;-76
2022/03/04 01:10:49;;;;;;;14.40;7.97;;;2.30;99.90;;;;;;5051537;28;20228;-76
2022/03/04 01:13:15;;;;;;;13.80;7.67;;;2.20;99.90;;;;;;5048549;28;20701;-76
2022/03/04 01:15:41;;;;;;;13.97;8.20;;;2.20;99.90;;;;;;5050692;28;20306;-76
2022/03/04 01:18:06;;;;;;;14.87;8.47;;;2.20;99.90;;;;;;5050138;28;20299;-75
2022/03/04 01:20:33;;;;;;;13.03;7.67;;;2.10;99.90;;;;;;5050303;28;20217;-75
2022/03/04 01:22:59;;;;;;;15.23;8.10;;;1.90;99.90;;;;;;5051444;28;20258;-75
2022/03/04 01:25:24;;;;;;;13.17;6.97;;;1.90;99.90;;;;;;5050409;28;20334;-76
2022/03/04 01:27:50;;;;;;;13.83;7.30;;;1.80;99.90;;;;;;5050444;28;20692;-76
2022/03/04 01:30:16;;;;;;;13.27;7.53;;;1.90;99.90;;;;;;5047345;28;20252;-76
2022/03/04 01:32:41;;;;;;;13.07;8.50;;;2.00;99.90;;;;;;5050774;28;20801;-75
2022/03/04 01:35:08;;;;;;;15.50;7.20;;;2.00;99.90;;;;;;5047071;28;20239;-75
2022/03/04 01:37:34;;;;;;;14.33;7.63;;;2.00;99.90;;;;;;5042898;28;20196;-76
2022/03/04 01:40:00;;;;;;;14.43;7.60;;;2.00;99.90;;;;;;5048609;28;20203;-75
2022/03/04 01:42:25;;;;;;;15.93;7.80;;;2.00;99.90;;;;;;5050647;28;20224;-75
2022/03/04 01:44:51;;;;;;;14.77;9.07;;;2.10;99.90;;;;;;5044886;28;20207;-75
2022/03/04 01:47:16;;;;;;;22.27;11.27;;;2.10;99.90;;;;;;5049163;28;20193;-75
2022/03/04 01:49:42;;;;;;;17.63;9.30;;;2.00;99.90;;;;;;5050297;28;20205;-75
2022/03/04 01:52:08;;;;;;;15.33;8.67;;;2.00;99.90;;;;;;5047104;28;20203;-75
2022/03/04 01:54:34;;;;;;;18.93;10.13;;;2.10;99.90;;;;;;5050473;28;20217;-75
2022/03/04 01:57:00;;;;;;;22.00;11.23;;;2.00;99.90;;;;;;5050380;28;20207;-75
2022/03/04 01:59:27;;;;;;;20.63;9.37;;;1.90;99.90;;;;;;5049649;28;20206;-75
2022/03/04 02:01:53;;;;;;;18.30;8.87;;;1.80;99.90;;;;;;5050548;28;20171;-76
2022/03/04 02:04:23;;;;;;;17.97;8.13;;;1.70;99.90;;;;;;5050380;28;20218;-76
2022/03/04 02:06:49;;;;;;;24.47;10.77;;;1.70;99.90;;;;;;5043963;28;20295;-76
2022/03/04 02:09:15;;;;;;;22.93;12.03;;;1.80;99.90;;;;;;5048401;28;20295;-76
2022/03/04 02:11:43;;;;;;;18.57;10.07;;;1.80;99.90;;;;;;5043191;28;20274;-76
2022/03/04 02:14:09;;;;;;;20.57;9.40;;;1.90;99.90;;;;;;5050824;28;20199;-76
2022/03/04 02:16:41;;;;;;;22.07;9.23;;;1.90;99.90;;;;;;5054670;28;20635;-76
2022/03/04 02:19:06;;;;;;;20.37;8.83;;;2.00;99.90;;;;;;5053478;28;20230;-76
2022/03/04 02:21:33;;;;;;;19.50;8.97;;;2.10;99.90;;;;;;5053840;28;20226;-76
2022/03/04 02:23:59;;;;;;;16.43;8.17;;;2.10;99.90;;;;;;5049447;28;20264;-76
2022/03/04 02:26:24;;;;;;;16.07;8.37;;;2.10;99.90;;;;;;5053899;28;20214;-76
2022/03/04 02:28:50;;;;;;;15.50;7.30;;;2.10;99.90;;;;;;5047822;28;20193;-76
2022/03/04 02:31:17;;;;;;;20.33;7.70;;;2.10;99.90;;;;;;5053564;28;20237;-76
2022/03/04 02:33:44;;;;;;;23.67;8.47;;;2.10;99.90;;;;;;5046873;28;20215;-76
2022/03/04 02:36:10;;;;;;;18.90;7.53;;;2.10;99.90;;;;;;5053684;28;20240;-76
2022/03/04 02:38:36;;;;;;;21.70;8.47;;;2.00;99.90;;;;;;5045179;28;20234;-76
2022/03/04 02:41:02;;;;;;;18.60;8.27;;;2.00;99.90;;;;;;5053994;28;20176;-76
2022/03/04 02:43:27;;;;;;;19.60;9.40;;;2.00;99.90;;;;;;5053784;28;20213;-77
2022/03/04 02:45:53;;;;;;;14.03;7.10;;;2.00;99.90;;;;;;5048326;28;20256;-77
2022/03/04 02:48:18;;;;;;;18.60;7.80;;;2.00;99.90;;;;;;5051818;28;20217;-76
2022/03/04 02:50:44;;;;;;;14.70;7.43;;;2.10;99.90;;;;;;5046789;28;20223;-77
2022/03/04 02:53:10;;;;;;;19.30;7.23;;;2.10;99.90;;;;;;5052526;28;20228;-77
2022/03/04 02:55:35;;;;;;;13.27;7.63;;;2.20;99.90;;;;;;5053729;28;20262;-77
2022/03/04 02:58:01;;;;;;;22.10;9.97;;;2.20;99.90;;;;;;5053007;28;20563;-77
2022/03/04 03:00:28;;;;;;;16.60;8.23;;;2.20;99.90;;;;;;5044025;28;20589;-77
2022/03/04 03:02:53;;;;;;;12.83;7.03;;;2.30;99.90;;;;;;5054198;28;20429;-77
2022/03/04 03:05:20;;;;;;;14.63;7.53;;;2.20;99.90;;;;;;5053295;28;20189;-77
2022/03/04 03:07:45;;;;;;;12.93;6.53;;;2.30;99.90;;;;;;5065598;22;20226;-78
2022/03/04 03:10:11;;;;;;;15.47;6.80;;;2.30;99.90;;;;;;5066490;28;20778;-78
2022/03/04 03:12:38;;;;;;;12.23;5.93;;;2.30;99.90;;;;;;5052233;28;20211;-78
2022/03/04 03:15:05;;;;;;;18.27;6.77;;;2.40;99.90;;;;;;5049808;28;20265;-78
2022/03/04 03:17:30;;;;;;;20.07;6.73;;;2.40;99.90;;;;;;5065085;28;20219;-78
2022/03/04 03:19:56;;;;;;;13.63;6.40;;;2.40;99.90;;;;;;5055357;28;20178;-78
2022/03/04 03:22:21;;;;;;;16.97;7.03;;;2.40;99.90;;;;;;5055501;28;20334;-78
2022/03/04 03:24:48;;;;;;;14.93;6.13;;;2.50;99.90;;;;;;5061322;28;20205;-78
2022/03/04 03:27:14;;;;;;;17.50;6.63;;;2.50;99.90;;;;;;5069152;28;20198;-78
2022/03/04 03:29:39;;;;;;;13.30;6.37;;;2.40;99.90;;;;;;5046958;28;20281;-78
2022/03/04 03:32:05;;;;;;;15.33;5.73;;;2.50;99.90;;;;;;5050152;28;20175;-78
2022/03/04 03:34:31;;;;;;;15.93;6.23;;;2.50;99.90;;;;;;5073345;28;20201;-78
2022/03/04 03:36:56;;;;;;;16.17;5.50;;;2.50;99.90;;;;;;5050385;28;20197;-79
2022/03/04 03:39:22;;;;;;;11.93;6.03;;;2.60;99.90;;;;;;5064451;28;20214;-76
2022/03/04 03:41:47;;;;;;;9.13;5.30;;;2.60;99.90;;;;;;5055126;28;20329;-78
2022/03/04 03:44:13;;;;;;;12.27;5.73;;;2.60;99.90;;;;;;5073181;28;20223;-78
2022/03/04 03:46:38;;;;;;;20.23;6.60;;;2.60;99.90;;;;;;5064796;28;20179;-78
2022/03/04 03:49:04;;;;;;;12.57;6.27;;;2.50;99.90;;;;;;5058442;28;20938;-78
2022/03/04 03:51:30;;;;;;;13.00;6.50;;;2.50;99.90;;;;;;5024000;28;20282;-78
2022/03/04 03:53:55;;;;;;;17.07;7.40;;;2.50;99.90;;;;;;5052604;28;20215;-78
2022/03/04 03:56:21;;;;;;;17.83;6.97;;;2.30;99.90;;;;;;5060612;28;20176;-76
2022/03/04 03:58:46;;;;;;;18.87;8.07;;;2.20;99.90;;;;;;5034335;28;20227;-78
2022/03/04 04:01:12;;;;;;;17.67;7.70;;;2.20;99.90;;;;;;5052277;28;20197;-78
2022/03/04 04:03:37;;;;;;;18.90;7.47;;;2.20;99.90;;;;;;5054541;28;20201;-78
2022/03/04 04:06:03;;;;;;;14.03;6.80;;;2.30;99.90;;;;;;5064120;28;20260;-76
2022/03/04 04:08:29;;;;;;;16.27;7.13;;;2.40;99.90;;;;;;5053497;28;20232;-78
2022/03/04 04:10:54;;;;;;;17.03;7.53;;;2.40;99.90;;;;;;5061058;28;20192;-78
2022/03/04 04:13:20;;;;;;;15.93;7.97;;;2.30;99.90;;;;;;5060609;28;20237;-76
2022/03/04 04:15:45;;;;;;;16.67;8.20;;;2.40;99.90;;;;;;5032731;28;20291;-76
2022/03/04 04:18:11;;;;;;;15.33;8.57;;;2.50;99.90;;;;;;5059774;28;20260;-76
2022/03/04 04:20:36;;;;;;;18.03;7.77;;;2.50;99.90;;;;;;5054723;28;20264;-77
2022/03/04 04:23:02;;;;;;;17.00;7.07;;;2.50;99.90;;;;;;5067776;28;20589;-77
2022/03/04 04:25:28;;;;;;;18.13;8.30;;;2.50;99.90;;;;;;5052891;28;20216;-77
2022/03/04 04:27:53;;;;;;;18.07;8.77;;;2.40;99.90;;;;;;5045227;28;20215;-75
2022/03/04 04:30:19;;;;;;;17.87;8.23;;;2.50;99.90;;;;;;5054990;28;20280;-76
2022/03/04 04:32:44;;;;;;;19.47;8.77;;;2.50;99.90;;;;;;5041903;28;20708;-76
2022/03/04 04:35:10;;;;;;;15.20;7.67;;;2.50;99.90;;;;;;5048640;28;20593;-75
2022/03/04 04:37:35;;;;;;;20.47;8.97;;;2.60;99.90;;;;;;5052908;28;20780;-76
2022/03/04 04:40:01;;;;;;;14.27;8.37;;;2.50;99.90;;;;;;5041259;28;20272;-75
2022/03/04 04:42:26;;;;;;;18.13;8.23;;;2.60;99.90;;;;;;5059835;28;20285;-77
2022/03/04 04:44:52;;;;;;;18.17;8.07;;;2.70;99.90;;;;;;5034497;28;20227;-77
2022/03/04 04:47:18;;;;;;;18.03;8.57;;;2.60;99.90;;;;;;5060113;28;20186;-76
2022/03/04 04:49:44;;;;;;;15.67;7.90;;;2.60;99.90;;;;;;5043956;28;20182;-76
2022/03/04 04:52:09;;;;;;;20.13;8.20;;;2.70;99.90;;;;;;5047008;28;20260;-77
2022/03/04 04:54:36;;;;;;;19.43;8.03;;;2.70;99.90;;;;;;5041890;28;20212;-76
2022/03/04 04:57:02;;;;;;;17.33;8.37;;;2.70;99.90;;;;;;5057407;28;20199;-76
2022/03/04 04:59:27;;;;;;;17.63;8.23;;;2.70;99.90;;;;;;5053446;28;20297;-76
2022/03/04 05:01:53;;;;;;;19.50;8.47;;;2.80;99.90;;;;;;5034088;28;20704;-76
2022/03/04 05:04:18;;;;;;;13.57;6.70;;;2.90;99.90;;;;;;5051608;28;20214;-76
2022/03/04 05:06:44;;;;;;;18.13;7.50;;;2.80;99.90;;;;;;5049969;28;20212;-76
2022/03/04 05:09:09;;;;;;;12.70;7.23;;;2.90;99.90;;;;;;5050758;28;20306;-76
2022/03/04 05:11:35;;;;;;;10.97;6.23;;;2.80;99.90;;;;;;5059697;28;20214;-77
2022/03/04 05:14:01;;;;;;;14.20;6.10;;;2.80;99.90;;;;;;5039724;28;20693;-76
2022/03/04 05:16:26;;;;;;;13.67;6.10;;;2.80;99.90;;;;;;5044397;28;20213;-76
2022/03/04 05:18:52;;;;;;;13.13;6.10;;;2.80;99.90;;;;;;5052299;28;20695;-77
2022/03/04 05:21:17;;;;;;;11.30;5.30;;;2.80;99.90;;;;;;5037620;28;20356;-78
2022/03/04 05:24:02;;;;;;;9.43;5.03;;;2.80;99.90;;;;;;5044853;28;20211;-77
2022/03/04 05:26:29;;;;;;;12.03;4.87;;;2.70;99.90;;;;;;5053953;28;20273;-78
2022/03/04 05:28:55;;;;;;;9.20;4.37;;;2.70;99.90;;;;;;5059599;28;20295;-77
2022/03/04 05:31:21;;;;;;;12.57;5.63;;;2.70;99.90;;;;;;5051343;28;20212;-75
2022/03/04 05:33:47;;;;;;;8.20;4.70;;;2.70;99.90;;;;;;5071404;28;20207;-77
2022/03/04 05:36:14;;;;;;;9.93;5.23;;;2.70;99.90;;;;;;5064213;28;20312;-76
2022/03/04 05:38:39;;;;;;;11.70;4.30;;;2.70;99.90;;;;;;5040401;28;20225;-77
2022/03/04 05:41:05;;;;;;;6.03;3.60;;;2.70;99.90;;;;;;5041057;28;20176;-77
2022/03/04 05:43:31;;;;;;;9.33;3.77;;;2.70;99.90;;;;;;5043153;28;20181;-77
2022/03/04 05:45:56;;;;;;;8.87;3.50;;;2.70;99.90;;;;;;5039636;28;20257;-76
2022/03/04 05:48:21;;;;;;;7.37;3.63;;;2.70;99.90;;;;;;5058753;28;20703;-76
2022/03/04 05:50:47;;;;;;;7.80;3.27;;;2.70;99.90;;;;;;5042023;28;20289;-77
2022/03/04 05:53:13;;;;;;;8.53;3.73;;;2.60;99.90;;;;;;5063368;28;20705;-75
2022/03/04 05:55:39;;;;;;;7.93;3.83;;;2.60;99.90;;;;;;5054983;28;20212;-77
2022/03/04 05:58:05;;;;;;;5.77;3.33;;;2.70;99.90;;;;;;5060295;28;20296;-77
2022/03/04 06:00:31;;;;;;;8.67;3.63;;;2.70;99.90;;;;;;5047094;28;20291;-77
2022/03/04 06:02:57;;;;;;;7.00;3.40;;;2.70;99.90;;;;;;5036969;28;20226;-77
2022/03/04 06:05:22;;;;;;;10.30;3.80;;;2.70;99.90;;;;;;5063024;28;20182;-77
2022/03/04 06:07:48;;;;;;;8.73;3.40;;;2.80;99.90;;;;;;5054333;28;20206;-76
2022/03/04 06:10:14;;;;;;;6.00;3.10;;;2.80;99.90;;;;;;5070324;28;20258;-78
2022/03/04 06:12:39;;;;;;;6.03;3.40;;;2.80;99.90;;;;;;5064152;28;20225;-77
2022/03/04 06:15:05;;;;;;;7.53;3.17;;;2.90;99.90;;;;;;5068740;28;20241;-77
2022/03/04 06:17:31;;;;;;;9.87;3.40;;;2.90;99.90;;;;;;5074199;28;20217;-77
2022/03/04 06:19:57;;;;;;;9.43;3.10;;;2.90;99.90;;;;;;5054488;28;20232;-77
2022/03/04 06:22:22;;;;;;;4.60;2.93;;;2.90;99.90;;;;;;5056448;28;20630;-77
2022/03/04 06:24:48;;;;;;;8.13;2.87;;;2.90;99.90;;;;;;5044300;28;20208;-77
2022/03/04 06:27:14;;;;;;;7.00;2.97;;;3.00;99.90;;;;;;5062148;28;20257;-77
2022/03/04 06:29:40;;;;;;;4.30;3.00;;;3.00;99.90;;;;;;5070119;28;20215;-77
2022/03/04 06:32:06;;;;;;;5.10;3.03;;;3.10;99.90;;;;;;5068624;28;20173;-76
2022/03/04 06:34:32;;;;;;;7.27;3.30;;;3.00;99.90;;;;;;5066147;28;20735;-77
2022/03/04 06:36:58;;;;;;;9.70;4.40;;;3.10;99.90;;;;;;5043056;28;20211;-77
2022/03/04 06:39:23;;;;;;;7.83;3.87;;;3.10;99.90;;;;;;5049965;28;20252;-77
2022/03/04 06:41:48;;;;;;;10.60;2.80;;;3.10;99.90;;;;;;5043411;28;20205;-77
2022/03/04 06:44:14;;;;;;;5.67;3.60;;;3.10;99.90;;;;;;5074358;28;20190;-77
2022/03/04 06:46:40;;;;;;;6.43;3.60;;;3.10;99.90;;;;;;5075075;28;20257;-77
2022/03/04 06:49:10;;;;;;;4.27;2.70;;;3.10;99.90;;;;;;5074266;28;20214;-78
2022/03/04 06:51:36;;;;;;;5.00;3.10;;;3.10;99.90;;;;;;5075270;28;20297;-77
2022/03/04 06:54:02;;;;;;;6.13;3.27;;;3.10;99.90;;;;;;5066901;28;20214;-78
2022/03/04 06:56:27;;;;;;;9.87;2.83;;;3.20;99.90;;;;;;5048258;28;20206;-77
2022/03/04 06:58:53;;;;;;;5.40;2.83;;;3.20;99.90;;;;;;5068572;28;20237;-78
2022/03/04 07:01:18;;;;;;;5.20;2.53;;;3.20;99.90;;;;;;5058551;28;20214;-77
2022/03/04 07:03:43;;;;;;;8.27;3.70;;;3.20;99.90;;;;;;5065381;28;20227;-78
2022/03/04 07:06:09;;;;;;;10.93;3.00;;;3.30;99.90;;;;;;5073468;28;20213;-78
2022/03/04 07:08:37;;;;;;;5.30;2.60;;;3.30;99.90;;;;;;5049436;28;20222;-78
2022/03/04 07:11:02;;;;;;;5.37;2.40;;;3.30;99.90;;;;;;5073988;28;20182;-77
2022/03/04 07:13:28;;;;;;;6.97;3.50;;;3.30;99.90;;;;;;5056261;28;20290;-77
2022/03/04 07:15:54;;;;;;;4.47;2.30;;;3.30;99.90;;;;;;5075358;28;20209;-78
2022/03/04 07:18:19;;;;;;;8.23;2.83;;;3.30;99.90;;;;;;5047087;28;20221;-77
2022/03/04 07:20:45;;;;;;;5.83;2.73;;;3.30;99.90;;;;;;5055537;28;20252;-76
2022/03/04 07:23:10;;;;;;;6.00;2.57;;;3.40;99.90;;;;;;5073834;28;20649;-77
2022/03/04 07:25:36;;;;;;;3.97;2.33;;;3.40;99.90;;;;;;5055982;28;20260;-78
2022/03/04 07:28:02;;;;;;;8.50;3.60;;;3.40;99.90;;;;;;5072886;28;20206;-77
2022/03/04 07:30:28;;;;;;;5.23;2.80;;;3.50;99.90;;;;;;5073599;28;20255;-76
2022/03/04 07:32:54;;;;;;;8.43;3.30;;;3.50;99.90;;;;;;5047127;28;20231;-76
2022/03/04 07:35:20;;;;;;;6.20;3.03;;;3.50;99.90;;;;;;5073231;28;20206;-77
2022/03/04 07:37:46;;;;;;;11.60;3.63;;;3.50;99.90;;;;;;5070356;28;20199;-76
2022/03/04 07:40:14;;;;;;;7.70;3.53;;;3.50;99.90;;;;;;5054608;28;20213;-77
2022/03/04 07:42:40;;;;;;;7.50;2.90;;;3.60;99.90;;;;;;5073021;28;20206;-77
2022/03/04 07:45:08;;;;;;;7.03;3.03;;;3.70;99.90;;;;;;5073165;28;20252;-76
2022/03/04 07:47:33;;;;;;;7.20;3.07;;;3.70;99.90;;;;;;5070919;28;20210;-77
2022/03/04 07:49:59;;;;;;;8.60;3.70;;;3.80;99.90;;;;;;5040174;28;20604;-77
2022/03/04 07:52:31;;;;;;;7.10;3.17;;;3.60;99.90;;;;;;5064612;28;20207;-77
2022/03/04 07:54:58;;;;;;;8.60;3.10;;;3.60;99.90;;;;;;5073106;28;20213;-77
2022/03/04 07:57:23;;;;;;;5.80;3.13;;;3.60;99.90;;;;;;5054591;28;20210;-77
2022/03/04 07:59:48;;;;;;;7.27;3.60;;;3.60;99.90;;;;;;5054151;28;20213;-78
2022/03/04 08:02:14;;;;;;;9.27;3.47;;;3.70;99.90;;;;;;5065858;28;20187;-76
2022/03/04 08:04:39;;;;;;;9.37;3.60;;;3.70;99.90;;;;;;5074085;28;20175;-76
2022/03/04 08:07:05;;;;;;;16.00;3.67;;;3.70;99.90;;;;;;5056980;28;20206;-77
2022/03/04 08:09:30;;;;;;;4.97;3.10;;;3.80;99.90;;;;;;5051782;28;20723;-75
2022/03/04 08:11:56;;;;;;;6.73;3.23;;;4.00;99.90;;;;;;5063788;28;20210;-76
2022/03/04 08:14:21;;;;;;;5.93;2.80;;;4.10;99.90;;;;;;5038353;28;20196;-78
2022/03/04 08:16:47;;;;;;;9.37;2.90;;;4.20;99.90;;;;;;5073414;28;20186;-76
2022/03/04 08:19:12;;;;;;;9.20;3.30;;;4.30;99.90;;;;;;5072042;28;20218;-77
2022/03/04 08:21:39;;;;;;;8.10;3.07;;;4.40;99.90;;;;;;5072666;28;20580;-76
2022/03/04 08:24:06;;;;;;;8.20;3.80;;;4.60;99.90;;;;;;5054714;28;20203;-77
2022/03/04 08:26:32;;;;;;;6.37;3.83;;;4.60;99.90;;;;;;5072654;28;20211;-76
2022/03/04 08:28:57;;;;;;;7.60;3.30;;;4.60;99.90;;;;;;5072316;28;20203;-76
2022/03/04 08:31:23;;;;;;;5.67;2.93;;;4.60;99.90;;;;;;5072510;28;20761;-76
2022/03/04 08:33:48;;;;;;;7.57;3.23;;;4.60;99.90;;;;;;5055222;28;20293;-76
2022/03/04 08:36:14;;;;;;;8.73;3.13;;;4.60;99.90;;;;;;5054858;28;20671;-78
2022/03/04 08:38:40;;;;;;;8.03;3.57;;;4.60;99.90;;;;;;5049382;28;20244;-77
2022/03/04 08:41:06;;;;;;;10.83;4.60;;;4.50;99.90;;;;;;5072421;28;20706;-77
2022/03/04 08:43:34;;;;;;;7.90;4.60;;;4.40;99.90;;;;;;5073139;28;20175;-77
2022/03/04 08:46:01;;;;;;;8.47;4.53;;;4.30;99.90;;;;;;5054688;28;20203;-78
2022/03/04 08:48:26;;;;;;;9.27;4.67;;;4.30;99.90;;;;;;5053942;28;20212;-76
2022/03/04 08:50:52;;;;;;;11.87;4.90;;;4.10;99.90;;;;;;5075147;28;20244;-82
2022/03/04 08:53:17;;;;;;;11.97;6.30;;;4.20;99.90;;;;;;5073228;28;20222;-77
2022/03/04 08:55:45;;;;;;;10.80;5.43;;;4.10;99.90;;;;;;5073350;28;20202;-76
2022/03/04 08:58:11;;;;;;;6.10;4.37;;;4.00;99.90;;;;;;5071523;28;20301;-76
2022/03/04 09:00:37;;;;;;;9.83;4.73;;;4.20;99.90;;;;;;5055162;28;20615;-77
2022/03/04 09:03:04;;;;;;;11.23;4.73;;;4.20;99.90;;;;;;5072893;28;20208;-77
2022/03/04 09:05:30;;;;;;;8.73;3.93;;;4.20;99.90;;;;;;5071222;28;20214;-77
2022/03/04 09:10:30;;;;;;;11.67;4.60;;;4.20;99.90;;;;;;5061410;28;20279;-77
2022/03/04 09:12:56;;;;;;;7.73;4.93;;;4.10;99.90;;;;;;5053076;28;20210;-78
2022/03/04 09:15:22;;;;;;;6.00;5.00;;;4.20;99.90;;;;;;5057365;28;20207;-76
2022/03/04 09:17:47;;;;;;;8.53;4.97;;;4.30;99.90;;;;;;5054135;28;20214;-73
2022/03/04 09:20:14;;;;;;;10.63;4.20;;;4.50;99.90;;;;;;5054541;28;20295;-73
2022/03/04 09:22:40;;;;;;;7.30;4.40;;;4.70;99.90;;;;;;5065938;28;20179;-74
2022/03/04 09:25:06;;;;;;;7.53;4.30;;;4.80;99.90;;;;;;5064530;28;20202;-73
2022/03/04 09:27:32;;;;;;;6.50;3.20;;;4.70;99.90;;;;;;5045912;28;20234;-76
2022/03/04 09:29:57;;;;;;;7.90;3.57;;;4.80;99.90;;;;;;5067673;28;20241;-77
2022/03/04 09:32:23;;;;;;;4.37;3.10;;;4.90;99.90;;;;;;5088286;28;20188;-76
2022/03/04 09:34:48;;;;;;;7.20;3.00;;;5.10;99.90;;;;;;5083518;28;20219;-76
2022/03/04 09:37:14;;;;;;;13.20;5.07;;;5.00;99.90;;;;;;5069926;28;20227;-77
2022/03/04 09:39:40;;;;;;;18.03;7.40;;;5.30;99.90;;;;;;5069039;28;20213;-76
2022/03/04 09:42:06;;;;;;;12.90;3.80;;;5.50;99.90;;;;;;5070168;28;20230;-77
2022/03/04 09:44:32;;;;;;;5.93;3.50;;;5.70;99.90;;;;;;5070060;28;20258;-77
2022/03/04 09:47:00;;;;;;;8.50;3.87;;;5.90;99.90;;;;;;5071046;28;20183;-76
2022/03/04 09:49:31;;;;;;;6.23;3.63;;;6.20;99.90;;;;;;5069317;28;20210;-76
2022/03/04 09:51:57;;;;;;;6.30;3.27;;;6.90;99.90;;;;;;5078762;28;20648;-77
2022/03/04 09:54:26;;;;;;;8.77;4.67;;;7.50;99.90;;;;;;5049976;28;20265;-75
2022/03/04 09:56:52;;;;;;;6.30;4.00;;;7.30;99.90;;;;;;5062591;28;20675;-75
2022/03/04 09:59:18;;;;;;;6.50;3.40;;;6.50;99.90;;;;;;5057055;28;20215;-76
2022/03/04 10:01:44;;;;;;;6.30;4.03;;;6.30;99.90;;;;;;5059742;28;20224;-74
2022/03/04 10:04:11;;;;;;;6.77;4.17;;;6.20;99.90;;;;;;5079842;28;20236;-74
2022/03/04 10:06:40;;;;;;;7.47;3.83;;;6.10;99.90;;;;;;5051953;28;20211;-72
2022/03/04 10:09:06;;;;;;;8.97;4.00;;;5.80;99.90;;;;;;5057897;28;20830;-73
2022/03/04 10:11:34;;;;;;;5.67;3.70;;;5.80;99.90;;;;;;5066415;28;20308;-74
2022/03/04 10:14:01;;;;;;;9.57;3.83;;;5.20;99.90;;;;;;5064132;28;20234;-74
2022/03/04 10:16:33;;;;;;;5.23;3.50;;;5.00;99.90;;;;;;5069672;28;20609;-74
2022/03/04 10:19:04;;;;;;;6.33;4.27;;;5.00;99.90;;;;;;5068813;28;20234;-73
2022/03/04 10:21:57;;;;;;;9.17;4.33;;;4.80;99.90;;;;;;5076599;28;20206;-73
2022/03/04 10:24:27;;;;;;;5.90;3.37;;;4.70;99.90;;;;;;5079706;28;20317;-75
2022/03/04 10:27:08;;;;;;;8.37;3.90;;;4.80;99.90;;;;;;5060911;28;20214;-74
2022/03/04 10:29:36;;;;;;;8.03;3.90;;;4.80;99.90;;;;;;5078231;28;20303;-74
2022/03/04 10:32:26;;;;;;;7.53;3.33;;;4.90;99.90;;;;;;5062120;28;20180;-75
2022/03/04 10:34:57;;;;;;;3.53;2.87;;;4.80;99.90;;;;;;5061278;28;20219;-78
2022/03/04 10:37:54;;;;;;;6.27;3.53;;;4.70;99.90;;;;;;5056249;28;20216;-76
2022/03/04 10:40:21;;;;;;;4.60;3.23;;;4.50;99.90;;;;;;5054758;28;20344;-76
2022/03/04 10:43:05;;;;;;;5.83;2.80;;;4.50;99.90;;;;;;5055294;28;20209;-76
2022/03/04 10:45:36;;;;;;;4.83;2.87;;;4.40;99.90;;;;;;5055030;28;20234;-74
2022/03/04 10:48:03;;;;;;;7.63;3.20;;;4.40;99.90;;;;;;5043655;28;20211;-75
2022/03/04 10:50:38;;;;;;;9.23;4.00;;;4.60;99.90;;;;;;5058492;28;20226;-73
2022/03/04 10:53:05;;;;;;;8.00;4.00;;;4.70;99.90;;;;;;5060966;28;20320;-74
2022/03/04 10:55:40;;;;;;;5.17;3.57;;;4.60;99.90;;;;;;5053320;28;20214;-75
2022/03/04 10:58:16;;;;;;;10.20;4.80;;;4.80;99.90;;;;;;5066769;28;20581;-75
2022/03/04 11:00:44;;;;;;;8.40;4.53;;;4.90;99.90;;;;;;5055092;28;20717;-75
2022/03/04 11:03:15;;;;;;;6.80;4.23;;;4.70;99.90;;;;;;5073354;28;20634;-75
2022/03/04 11:05:41;;;;;;;8.03;4.30;;;4.60;99.90;;;;;;5060705;28;20210;-74
2022/03/04 11:08:07;;;;;;;7.30;4.60;;;4.70;99.90;;;;;;5055010;28;20181;-75
2022/03/04 11:10:33;;;;;;;7.43;4.83;;;4.70;99.90;;;;;;5074513;28;20187;-75
2022/03/04 11:12:58;;;;;;;6.70;4.37;;;5.10;99.90;;;;;;5073938;28;20673;-75
2022/03/04 11:15:25;;;;;;;7.03;5.37;;;5.20;99.90;;;;;;5073573;28;20224;-76
2022/03/04 11:17:51;;;;;;;7.03;5.33;;;5.10;99.90;;;;;;5073830;28;20294;-75
2022/03/04 11:20:18;;;;;;;8.23;5.67;;;5.00;99.90;;;;;;5065000;28;20210;-75
2022/03/04 11:22:47;;;;;;;7.43;5.60;;;5.00;99.90;;;;;;5069514;28;20648;-75
2022/03/04 11:25:15;;;;;;;11.00;5.93;;;5.00;99.90;;;;;;5072693;28;20681;-76
2022/03/04 11:27:43;;;;;;;7.80;6.00;;;5.20;99.90;;;;;;5072200;28;20320;-74
2022/03/04 11:30:37;;;;;;;8.23;6.20;;;5.30;99.90;;;;;;5072249;28;20233;-76
2022/03/04 11:33:27;;;;;;;12.03;6.77;;;6.00;99.90;;;;;;5072713;28;20726;-76
2022/03/04 11:36:04;;;;;;;10.40;5.50;;;6.40;99.90;;;;;;5072590;28;20293;-75
2022/03/04 11:38:50;;;;;;;10.73;4.70;;;6.20;99.90;;;;;;5071477;28;20218;-76
2022/03/04 11:41:48;;;;;;;9.07;4.57;;;6.30;99.90;;;;;;5054345;28;20655;-75
2022/03/04 11:44:18;;;;;;;6.87;4.47;;;6.30;99.90;;;;;;5014740;28;20664;-75
2022/03/04 11:46:51;;;;;;;6.10;4.00;;;6.20;99.90;;;;;;5053833;28;20596;-75
2022/03/04 11:49:32;;;;;;;5.33;4.00;;;6.20;99.90;;;;;;5053760;28;20218;-75
2022/03/04 11:52:10;;;;;;;5.37;4.17;;;6.40;99.90;;;;;;5060539;28;20232;-76
2022/03/04 11:54:44;;;;;;;7.97;4.30;;;6.20;99.90;;;;;;5066905;28;20242;-74
2022/03/04 11:57:34;;;;;;;10.20;5.17;;;6.30;99.90;;;;;;5069604;28;20286;-74
2022/03/04 12:00:06;;;;;;;9.73;5.33;;;6.50;99.90;;;;;;5047150;28;20198;-74
2022/03/04 12:02:40;;;;;;;7.27;5.33;;;6.50;99.90;;;;;;5071988;28;20286;-73
2022/03/04 12:05:29;;;;;;;9.40;6.47;;;6.20;99.90;;;;;;5071991;28;20168;-73
2022/03/04 12:07:54;;;;;;;8.10;6.13;;;6.20;99.90;;;;;;5054006;28;20190;-73
2022/03/04 12:10:26;;;;;;;8.40;5.93;;;6.00;99.90;;;;;;5063894;28;20222;-76
2022/03/04 12:13:07;;;;;;;8.23;6.33;;;5.90;99.90;;;;;;5064980;28;20599;-77
2022/03/04 12:15:45;;;;;;;9.73;5.80;;;6.00;99.90;;;;;;5054440;28;20230;-74
2022/03/04 12:18:29;;;;;;;8.03;5.00;;;6.20;99.90;;;;;;5071460;28;20309;-75
2022/03/04 12:21:01;;;;;;;5.67;4.83;;;6.30;99.90;;;;;;5071781;28;20199;-77
2022/03/04 12:23:35;;;;;;;8.00;5.53;;;6.50;99.90;;;;;;5072167;28;20206;-73
2022/03/04 12:26:01;;;;;;;7.13;4.30;;;6.60;99.90;;;;;;5053639;28;20247;-73
2022/03/04 12:28:46;;;;;;;7.03;4.30;;;6.50;99.90;;;;;;5044487;28;20671;-74
2022/03/04 12:31:12;;;;;;;6.10;2.70;;;6.40;99.90;;;;;;5071374;28;20224;-73
2022/03/04 12:33:40;;;;;;;2.23;1.87;;;6.50;99.90;;;;;;5051197;28;20206;-74
2022/03/04 12:36:12;;;;;;;3.30;2.30;;;6.60;99.90;;;;;;5047756;28;20226;-74
2022/03/04 12:38:47;;;;;;;4.37;2.73;;;6.50;99.90;;;;;;5070092;28;20218;-74
2022/03/04 12:41:17;;;;;;;5.80;3.43;;;6.50;99.90;;;;;;5070923;28;20171;-75
2022/03/04 12:43:51;;;;;;;4.33;3.33;;;6.50;99.90;;;;;;5063451;28;20229;-74
2022/03/04 12:46:19;;;;;;;5.27;3.10;;;6.50;99.90;;;;;;5053306;28;20725;-74
2022/03/04 12:48:45;;;;;;;6.33;3.60;;;6.50;99.90;;;;;;5061861;28;20746;-74
2022/03/04 12:51:21;;;;;;;4.40;3.10;;;6.70;99.90;;;;;;5052209;28;20222;-73
2022/03/04 12:53:46;;;;;;;6.67;3.77;;;6.90;99.90;;;;;;5057828;28;20202;-75
2022/03/04 12:56:12;;;;;;;6.20;3.37;;;6.70;99.90;;;;;;5060609;28;20628;-76